Time;durP1;ratioP1;P1;durP2;ratioP2;P2;SDS_P1;SDS_P2;PMS_P1;PMS_P2;Temp;Humidity;BMP_temperature;BMP_pressure;BME280_temperature;BME280_humidity;BME280_pressure;Samples;Min_cycle;Max_cycle;Signal;HPM_P1;HPM_P2
2024/01/21 00:00:25;;;;;;;;;;;1.60;81.50;;;;;;5011373;28;87130;-49
2024/01/21 00:02:50;;;;;;;;;;;1.60;81.60;;;;;;5009302;28;87007;-49
2024/01/21 00:05:16;;;;;;;;;;;1.60;81.80;;;;;;5005221;28;87406;-50
2024/01/21 00:07:41;;;;;;;;;;;1.60;81.80;;;;;;5009819;28;86779;-53
2024/01/21 00:10:08;;;;;;;;;;;1.60;81.80;;;;;;5007957;28;88666;-51
2024/01/21 00:12:34;;;;;;;;;;;1.50;82.00;;;;;;5009311;28;88114;-51
2024/01/21 00:14:59;;;;;;;;;;;1.60;81.90;;;;;;5008045;28;89161;-49
2024/01/21 00:17:25;;;;;;;;;;;1.60;81.80;;;;;;5008109;28;87063;-51
2024/01/21 00:19:50;;;;;;;;;;;1.60;81.90;;;;;;5009434;28;86923;-50
2024/01/21 00:22:16;;;;;;;;;;;1.60;81.80;;;;;;5010844;28;88411;-53
2024/01/21 00:24:42;;;;;;;;;;;1.60;81.90;;;;;;5006963;28;86859;-49
2024/01/21 00:27:07;;;;;;;;;;;1.60;81.80;;;;;;5008024;28;87763;-53
2024/01/21 00:29:33;;;;;;;;;;;1.60;81.80;;;;;;5008132;28;87781;-49
2024/01/21 00:31:58;;;;;;;;;;;1.50;81.90;;;;;;5009276;28;86859;-51
2024/01/21 00:34:24;;;;;;;;;;;1.50;81.80;;;;;;5006796;28;87385;-49
2024/01/21 00:36:49;;;;;;;;;;;1.50;81.80;;;;;;5006906;28;87064;-49
2024/01/21 00:39:16;;;;;;;;;;;1.50;82.00;;;;;;5008727;28;87933;-50
2024/01/21 00:41:41;;;;;;;;;;;1.50;81.90;;;;;;5008633;28;88292;-49
2024/01/21 00:44:08;;;;;;;;;;;1.50;81.70;;;;;;5012053;28;87046;-52
2024/01/21 00:46:37;;;;;;;;;;;1.50;81.80;;;;;;5007799;28;86925;-52
2024/01/21 00:49:02;;;;;;;;;;;1.60;81.90;;;;;;5008501;28;87030;-51
2024/01/21 00:51:28;;;;;;;;;;;1.50;82.00;;;;;;5008546;28;87251;-54
2024/01/21 00:53:54;;;;;;;;;;;1.50;82.20;;;;;;5008626;28;87580;-50
2024/01/21 00:56:19;;;;;;;;;;;1.40;82.40;;;;;;5008439;28;86204;-51
2024/01/21 00:58:45;;;;;;;;;;;1.40;82.70;;;;;;5008774;28;86880;-51
2024/01/21 01:01:11;;;;;;;;;;;1.40;82.90;;;;;;5005293;28;88583;-50
2024/01/21 01:03:38;;;;;;;;;;;1.40;82.70;;;;;;5002549;28;87909;-51
2024/01/21 01:06:04;;;;;;;;;;;1.40;82.60;;;;;;5009853;28;88979;-49
2024/01/21 01:08:29;;;;;;;;;;;1.40;82.60;;;;;;5008215;28;86969;-49
2024/01/21 01:10:55;;;;;;;;;;;1.40;82.80;;;;;;5008514;28;88092;-51
2024/01/21 01:13:20;;;;;;;;;;;1.40;82.60;;;;;;5008077;28;88426;-49
2024/01/21 01:15:46;;;;;;;;;;;1.40;82.70;;;;;;5007484;28;87011;-51
2024/01/21 01:18:13;;;;;;;;;;;1.40;82.60;;;;;;5006890;28;87155;-52
2024/01/21 01:20:39;;;;;;;;;;;1.40;82.80;;;;;;5008730;28;87023;-51
2024/01/21 01:23:05;;;;;;;;;;;1.30;82.90;;;;;;5007680;28;87074;-53
2024/01/21 01:25:31;;;;;;;;;;;1.40;82.70;;;;;;5015308;27;87809;-50
2024/01/21 01:27:57;;;;;;;;;;;1.30;82.80;;;;;;5005111;28;87930;-50
2024/01/21 01:30:22;;;;;;;;;;;1.30;82.70;;;;;;5007626;28;87510;-50
2024/01/21 01:32:48;;;;;;;;;;;1.30;83.00;;;;;;5007050;28;87594;-49
2024/01/21 01:35:13;;;;;;;;;;;1.30;82.70;;;;;;5008730;28;87539;-50
2024/01/21 01:37:39;;;;;;;;;;;1.30;83.00;;;;;;5007859;28;86901;-48
2024/01/21 01:40:06;;;;;;;;;;;1.30;83.00;;;;;;5007791;28;87448;-49
2024/01/21 01:42:32;;;;;;;;;;;1.30;83.10;;;;;;5007815;28;87005;-51
2024/01/21 01:44:58;;;;;;;;;;;1.30;83.00;;;;;;5008651;28;86326;-50
2024/01/21 01:47:23;;;;;;;;;;;1.30;83.10;;;;;;5009788;28;88431;-49
2024/01/21 01:49:49;;;;;;;;;;;1.20;83.10;;;;;;5007683;28;87612;-54
2024/01/21 01:52:15;;;;;;;;;;;1.20;83.20;;;;;;5007061;28;88459;-49
2024/01/21 01:54:42;;;;;;;;;;;1.20;83.20;;;;;;5007669;28;86974;-50
2024/01/21 01:57:09;;;;;;;;;;;1.20;83.30;;;;;;5007826;28;87017;-49
2024/01/21 01:59:36;;;;;;;;;;;1.20;83.20;;;;;;5007608;28;86945;-50
2024/01/21 02:02:02;;;;;;;;;;;1.20;83.20;;;;;;5007289;28;87053;-49
2024/01/21 02:04:28;;;;;;;;;;;1.20;83.30;;;;;;5006532;28;86984;-50
2024/01/21 02:06:53;;;;;;;;;;;1.20;83.30;;;;;;5005812;28;87693;-53
2024/01/21 02:09:19;;;;;;;;;;;1.20;83.30;;;;;;5009709;28;86239;-49
2024/01/21 02:11:44;;;;;;;;;;;1.20;83.50;;;;;;5006674;28;88489;-49
2024/01/21 02:14:10;;;;;;;;;;;1.20;83.40;;;;;;5003966;28;87179;-49
2024/01/21 02:16:36;;;;;;;;;;;1.20;83.50;;;;;;5007199;28;87842;-51
2024/01/21 02:19:04;;;;;;;;;;;1.20;83.70;;;;;;5006694;28;87494;-50
2024/01/21 02:21:29;;;;;;;;;;;1.10;83.60;;;;;;5003658;28;87024;-50
2024/01/21 02:23:55;;;;;;;;;;;1.10;83.80;;;;;;5006570;28;87604;-48
2024/01/21 02:26:20;;;;;;;;;;;1.10;83.70;;;;;;5006979;28;87719;-49
2024/01/21 02:28:46;;;;;;;;;;;1.10;83.60;;;;;;5006171;28;87070;-51
2024/01/21 02:31:11;;;;;;;;;;;1.10;83.80;;;;;;5007876;28;87642;-50
2024/01/21 02:33:37;;;;;;;;;;;1.10;83.80;;;;;;5005650;28;86351;-52
2024/01/21 02:36:02;;;;;;;;;;;1.10;83.90;;;;;;5007297;28;87002;-49
2024/01/21 02:38:28;;;;;;;;;;;1.10;83.70;;;;;;5006382;28;87344;-50
2024/01/21 02:40:54;;;;;;;;;;;1.10;83.80;;;;;;5005670;28;87998;-51
2024/01/21 02:43:19;;;;;;;;;;;1.10;83.90;;;;;;5006747;28;88723;-49
2024/01/21 02:45:45;;;;;;;;;;;1.10;83.80;;;;;;5003488;28;87298;-49
2024/01/21 02:48:10;;;;;;;;;;;1.00;83.90;;;;;;5004670;28;86999;-48
2024/01/21 02:50:36;;;;;;;;;;;1.00;83.90;;;;;;5006472;28;86995;-51
2024/01/21 02:53:01;;;;;;;;;;;1.00;84.00;;;;;;5009690;28;87381;-50
2024/01/21 02:55:27;;;;;;;;;;;1.00;84.00;;;;;;5006918;28;87156;-50
2024/01/21 02:57:52;;;;;;;;;;;1.00;84.10;;;;;;5007138;28;86517;-50
2024/01/21 03:00:18;;;;;;;;;;;1.00;84.10;;;;;;5006503;28;87006;-49
2024/01/21 03:02:44;;;;;;;;;;;1.00;84.10;;;;;;5005733;28;88178;-51
2024/01/21 03:05:09;;;;;;;;;;;1.00;83.90;;;;;;5005340;28;89354;-50
2024/01/21 03:07:35;;;;;;;;;;;1.00;84.10;;;;;;5006644;28;87228;-49
2024/01/21 03:10:00;;;;;;;;;;;1.00;84.20;;;;;;5006573;28;86916;-50
2024/01/21 03:12:26;;;;;;;;;;;1.00;84.00;;;;;;5004985;28;88656;-48
2024/01/21 03:14:51;;;;;;;;;;;1.00;84.20;;;;;;5008837;28;86931;-50
2024/01/21 03:17:17;;;;;;;;;;;1.00;84.20;;;;;;5002593;28;87580;-51
2024/01/21 03:19:42;;;;;;;;;;;0.90;84.20;;;;;;5004194;28;87144;-49
2024/01/21 03:22:08;;;;;;;;;;;0.90;84.20;;;;;;5007297;28;86757;-50
2024/01/21 03:24:34;;;;;;;;;;;0.90;84.40;;;;;;5006329;28;86891;-51
2024/01/21 03:26:59;;;;;;;;;;;0.90;84.20;;;;;;5006721;28;86891;-50
2024/01/21 03:29:25;;;;;;;;;;;0.90;84.30;;;;;;5005463;28;88078;-48
2024/01/21 03:31:50;;;;;;;;;;;0.90;84.40;;;;;;5006276;28;86936;-47
2024/01/21 03:34:16;;;;;;;;;;;0.90;84.40;;;;;;5008311;28;87109;-49
2024/01/21 03:36:41;;;;;;;;;;;0.90;84.40;;;;;;5005963;28;87251;-50
2024/01/21 03:39:07;;;;;;;;;;;0.90;84.30;;;;;;5006415;28;87081;-49
2024/01/21 03:41:33;;;;;;;;;;;0.90;84.10;;;;;;5005738;28;87082;-49
2024/01/21 03:43:58;;;;;;;;;;;0.90;84.20;;;;;;5005606;28;87330;-49
2024/01/21 03:46:24;;;;;;;;;;;0.90;84.30;;;;;;5003808;28;86388;-49
2024/01/21 03:48:49;;;;;;;;;;;0.90;84.40;;;;;;5005849;28;87040;-50
2024/01/21 03:51:15;;;;;;;;;;;0.80;84.30;;;;;;5006261;28;87418;-47
2024/01/21 03:53:41;;;;;;;;;;;0.90;84.40;;;;;;5001213;28;87690;-50
2024/01/21 03:56:07;;;;;;;;;;;0.80;84.30;;;;;;5007708;28;88843;-52
2024/01/21 03:58:33;;;;;;;;;;;0.80;84.30;;;;;;5005936;28;87012;-48
2024/01/21 04:00:59;;;;;;;;;;;0.80;84.30;;;;;;5006273;28;87581;-48
2024/01/21 04:03:25;;;;;;;;;;;0.80;84.30;;;;;;5005587;28;87373;-52
2024/01/21 04:05:50;;;;;;;;;;;0.80;84.40;;;;;;5004848;28;87576;-48
2024/01/21 04:08:16;;;;;;;;;;;0.80;84.50;;;;;;5005428;28;87862;-50
2024/01/21 04:10:42;;;;;;;;;;;0.80;84.50;;;;;;5005948;28;87013;-50
2024/01/21 04:13:08;;;;;;;;;;;0.80;84.60;;;;;;5006031;28;86954;-48
2024/01/21 04:15:34;;;;;;;;;;;0.80;84.60;;;;;;5005906;28;87788;-50
2024/01/21 04:18:00;;;;;;;;;;;0.80;84.40;;;;;;5004321;28;88309;-49
2024/01/21 04:20:25;;;;;;;;;;;0.80;84.60;;;;;;5004515;28;87662;-48
2024/01/21 04:22:51;;;;;;;;;;;0.80;84.60;;;;;;5005582;28;87608;-48
2024/01/21 04:25:16;;;;;;;;;;;0.70;84.50;;;;;;5005876;28;87068;-48
2024/01/21 04:27:42;;;;;;;;;;;0.70;84.40;;;;;;5005847;28;88173;-48
2024/01/21 04:30:08;;;;;;;;;;;0.70;84.50;;;;;;5005491;28;87579;-48
2024/01/21 04:32:33;;;;;;;;;;;0.70;84.60;;;;;;5005712;28;87030;-50
2024/01/21 04:34:59;;;;;;;;;;;0.70;84.40;;;;;;5004251;28;86514;-53
2024/01/21 04:37:24;;;;;;;;;;;0.70;85.10;;;;;;5004874;28;87397;-48
2024/01/21 04:39:50;;;;;;;;;;;0.70;84.50;;;;;;5008416;28;86936;-48
2024/01/21 04:42:15;;;;;;;;;;;0.70;84.60;;;;;;5006519;28;88472;-51
2024/01/21 04:44:41;;;;;;;;;;;0.70;84.60;;;;;;5008750;28;86999;-49
2024/01/21 04:47:06;;;;;;;;;;;0.70;84.80;;;;;;5008805;28;87845;-49
2024/01/21 04:49:32;;;;;;;;;;;0.70;84.60;;;;;;5008197;28;87598;-52
2024/01/21 04:51:57;;;;;;;;;;;0.70;85.20;;;;;;5008608;28;86922;-50
2024/01/21 04:54:23;;;;;;;;;;;0.70;84.80;;;;;;5007577;28;87815;-52
2024/01/21 04:56:48;;;;;;;;;;;0.70;84.70;;;;;;5008169;28;88390;-48
2024/01/21 04:59:14;;;;;;;;;;;0.60;84.80;;;;;;5009223;28;86244;-50
2024/01/21 05:01:40;;;;;;;;;;;0.70;84.90;;;;;;5011501;28;86870;-50
2024/01/21 05:04:06;;;;;;;;;;;0.60;84.70;;;;;;5007235;28;87071;-49
2024/01/21 05:06:31;;;;;;;;;;;0.60;84.70;;;;;;5007590;28;88507;-49
2024/01/21 05:08:57;;;;;;;;;;;0.60;84.80;;;;;;5008212;28;87428;-49
2024/01/21 05:11:22;;;;;;;;;;;0.60;84.80;;;;;;5003269;28;87102;-49
2024/01/21 05:13:48;;;;;;;;;;;0.60;85.00;;;;;;5008198;28;86889;-51
2024/01/21 05:16:14;;;;;;;;;;;0.60;84.80;;;;;;5007341;28;87636;-50
2024/01/21 05:18:40;;;;;;;;;;;0.60;84.90;;;;;;5007852;28;87250;-48
2024/01/21 05:21:06;;;;;;;;;;;0.60;84.90;;;;;;5010175;28;86889;-48
2024/01/21 05:23:34;;;;;;;;;;;0.60;84.90;;;;;;5008907;28;86238;-48
2024/01/21 05:26:00;;;;;;;;;;;0.60;84.90;;;;;;5006989;28;86878;-48
2024/01/21 05:28:25;;;;;;;;;;;0.50;84.90;;;;;;5007430;28;88378;-51
2024/01/21 05:30:51;;;;;;;;;;;0.50;84.80;;;;;;5007599;28;87976;-48
2024/01/21 05:33:16;;;;;;;;;;;0.50;84.90;;;;;;5008216;28;87729;-48
2024/01/21 05:35:42;;;;;;;;;;;0.50;84.80;;;;;;5007099;28;88085;-49
2024/01/21 05:38:08;;;;;;;;;;;0.50;85.00;;;;;;5008176;28;86925;-49
2024/01/21 05:40:34;;;;;;;;;;;0.50;84.90;;;;;;5008224;28;86893;-48
2024/01/21 05:43:01;;;;;;;;;;;0.50;84.90;;;;;;5010044;28;87553;-48
2024/01/21 05:45:26;;;;;;;;;;;0.50;84.90;;;;;;5006907;28;86997;-47
2024/01/21 05:47:52;;;;;;;;;;;0.50;85.10;;;;;;5008260;28;86130;-47
2024/01/21 05:50:18;;;;;;;;;;;0.50;84.90;;;;;;5007847;28;87023;-47
2024/01/21 05:52:43;;;;;;;;;;;0.50;85.00;;;;;;5006232;28;86896;-49
2024/01/21 05:55:09;;;;;;;;;;;0.50;84.90;;;;;;5006642;28;89320;-47
2024/01/21 05:57:34;;;;;;;;;;;0.50;85.00;;;;;;5006978;28;87019;-51
2024/01/21 06:00:00;;;;;;;;;;;0.40;84.90;;;;;;5007476;28;87014;-50
2024/01/21 06:02:25;;;;;;;;;;;0.40;85.00;;;;;;5004629;28;90029;-47
2024/01/21 06:04:51;;;;;;;;;;;0.40;84.90;;;;;;5010663;28;86907;-49
2024/01/21 06:07:17;;;;;;;;;;;0.40;84.90;;;;;;5006267;28;87009;-49
2024/01/21 06:09:43;;;;;;;;;;;0.40;84.90;;;;;;5006479;28;87100;-48
2024/01/21 06:12:08;;;;;;;;;;;0.40;84.90;;;;;;5007355;28;86801;-51
2024/01/21 06:14:34;;;;;;;;;;;0.40;85.00;;;;;;5006565;28;87537;-47
2024/01/21 06:16:59;;;;;;;;;;;0.40;84.90;;;;;;5007436;28;87053;-49
2024/01/21 06:19:25;;;;;;;;;;;0.40;85.00;;;;;;5007352;28;87782;-49
2024/01/21 06:21:50;;;;;;;;;;;0.40;85.00;;;;;;5006598;28;88041;-48
2024/01/21 06:24:17;;;;;;;;;;;0.40;84.90;;;;;;5007344;28;87068;-48
2024/01/21 06:26:44;;;;;;;;;;;0.40;84.90;;;;;;5009958;28;87030;-49
2024/01/21 06:29:10;;;;;;;;;;;0.40;84.80;;;;;;5006973;28;86992;-47
2024/01/21 06:31:35;;;;;;;;;;;0.40;85.00;;;;;;5007590;28;86997;-50
2024/01/21 06:34:01;;;;;;;;;;;0.40;85.00;;;;;;5006919;28;87361;-50
2024/01/21 06:36:26;;;;;;;;;;;0.40;84.90;;;;;;5004993;28;86288;-47
2024/01/21 06:38:52;;;;;;;;;;;0.40;84.90;;;;;;5007430;28;86920;-49
2024/01/21 06:41:17;;;;;;;;;;;0.40;85.00;;;;;;5006876;28;87527;-48
2024/01/21 06:43:43;;;;;;;;;;;0.40;84.90;;;;;;5006462;28;87884;-47
2024/01/21 06:46:09;;;;;;;;;;;0.40;84.90;;;;;;5007224;28;87553;-47
2024/01/21 06:48:34;;;;;;;;;;;0.40;84.90;;;;;;5009292;28;88427;-47
2024/01/21 06:51:00;;;;;;;;;;;0.30;84.80;;;;;;5006937;28;87199;-48
2024/01/21 06:53:26;;;;;;;;;;;0.30;84.90;;;;;;5004751;28;88577;-47
2024/01/21 06:55:51;;;;;;;;;;;0.30;84.90;;;;;;5006732;28;87142;-48
2024/01/21 06:58:17;;;;;;;;;;;0.30;84.80;;;;;;5006931;28;87088;-47
2024/01/21 07:00:43;;;;;;;;;;;0.30;84.90;;;;;;5007134;28;86220;-49
2024/01/21 07:03:08;;;;;;;;;;;0.30;84.80;;;;;;5006464;28;87281;-52
2024/01/21 07:05:34;;;;;;;;;;;0.30;84.80;;;;;;5005643;28;87059;-48
2024/01/21 07:07:59;;;;;;;;;;;0.30;84.80;;;;;;5005307;28;88859;-49
2024/01/21 07:10:25;;;;;;;;;;;0.30;84.70;;;;;;5009341;28;87113;-47
2024/01/21 07:12:50;;;;;;;;;;;0.30;84.70;;;;;;5006210;28;88500;-51
2024/01/21 07:15:16;;;;;;;;;;;0.30;84.80;;;;;;5006954;28;87859;-48
2024/01/21 07:17:42;;;;;;;;;;;0.30;84.60;;;;;;5006562;28;87736;-48
2024/01/21 07:20:11;;;;;;;;;;;0.30;84.70;;;;;;5006298;28;87561;-49
2024/01/21 07:22:37;;;;;;;;;;;0.30;84.70;;;;;;5002447;28;87012;-48
2024/01/21 07:25:03;;;;;;;;;;;0.30;84.80;;;;;;5007174;28;86619;-47
2024/01/21 07:27:28;;;;;;;;;;;0.30;84.70;;;;;;5006210;28;87904;-47
2024/01/21 07:29:54;;;;;;;;;;;0.20;84.60;;;;;;5009369;28;87212;-48
2024/01/21 07:32:19;;;;;;;;;;;0.30;84.70;;;;;;5005713;28;88400;-48
2024/01/21 07:34:45;;;;;;;;;;;0.20;84.70;;;;;;5005395;28;86942;-47
2024/01/21 07:37:11;;;;;;;;;;;0.20;84.90;;;;;;5003139;28;87655;-49
2024/01/21 07:39:37;;;;;;;;;;;0.20;84.80;;;;;;5003070;28;88644;-49
2024/01/21 07:42:02;;;;;;;;;;;0.30;84.90;;;;;;5006616;28;87130;-48
2024/01/21 07:44:28;;;;;;;;;;;0.20;84.80;;;;;;5006454;28;87572;-47
2024/01/21 07:46:54;;;;;;;;;;;0.20;84.80;;;;;;5006120;28;87419;-48
2024/01/21 07:49:20;;;;;;;;;;;0.20;84.90;;;;;;5004946;28;87904;-49
2024/01/21 07:51:46;;;;;;;;;;;0.20;84.70;;;;;;5008461;28;86862;-47
2024/01/21 07:54:11;;;;;;;;;;;0.20;84.80;;;;;;5002895;28;87117;-47
2024/01/21 07:56:37;;;;;;;;;;;0.20;84.90;;;;;;5004743;28;88187;-48
2024/01/21 07:59:03;;;;;;;;;;;0.20;84.90;;;;;;5004398;28;87398;-47
2024/01/21 08:01:28;;;;;;;;;;;0.20;84.90;;;;;;5006401;28;87379;-47
2024/01/21 08:03:54;;;;;;;;;;;0.20;84.90;;;;;;5005322;28;87745;-49
2024/01/21 08:06:20;;;;;;;;;;;0.20;84.90;;;;;;5005863;28;86991;-46
2024/01/21 08:08:46;;;;;;;;;;;0.20;85.00;;;;;;5003014;28;87512;-47
2024/01/21 08:11:11;;;;;;;;;;;0.20;85.00;;;;;;5004371;28;87919;-47
2024/01/21 08:13:37;;;;;;;;;;;0.20;84.90;;;;;;5008484;28;87475;-47
2024/01/21 08:16:03;;;;;;;;;;;0.20;84.90;;;;;;5007829;28;87117;-47
2024/01/21 08:18:28;;;;;;;;;;;0.10;85.00;;;;;;5008977;28;88294;-47
2024/01/21 08:20:54;;;;;;;;;;;0.20;85.00;;;;;;5009011;28;87994;-50
2024/01/21 08:23:20;;;;;;;;;;;0.20;85.00;;;;;;5003728;28;87714;-48
2024/01/21 08:25:45;;;;;;;;;;;0.20;85.00;;;;;;5008834;28;88556;-48
2024/01/21 08:28:11;;;;;;;;;;;0.20;85.00;;;;;;5009030;28;87053;-48
2024/01/21 08:30:36;;;;;;;;;;;0.20;85.00;;;;;;5008891;28;86887;-47
2024/01/21 08:33:02;;;;;;;;;;;0.10;85.00;;;;;;5008757;28;88341;-47
2024/01/21 08:35:28;;;;;;;;;;;0.10;85.10;;;;;;5011348;28;86906;-46
2024/01/21 08:37:54;;;;;;;;;;;0.10;85.10;;;;;;5003414;28;87941;-47
2024/01/21 08:40:20;;;;;;;;;;;0.10;85.10;;;;;;5005888;28;86907;-46
2024/01/21 08:42:45;;;;;;;;;;;0.10;85.10;;;;;;5009166;28;87063;-47
2024/01/21 08:45:11;;;;;;;;;;;0.10;85.10;;;;;;5006548;28;91123;-48
2024/01/21 08:47:38;;;;;;;;;;;0.10;85.20;;;;;;5009096;28;86982;-46
2024/01/21 08:50:04;;;;;;;;;;;0.10;85.10;;;;;;5008861;28;87804;-47
2024/01/21 08:52:29;;;;;;;;;;;0.10;85.10;;;;;;5008671;28;87266;-49
2024/01/21 08:54:55;;;;;;;;;;;0.10;85.20;;;;;;5011606;28;87069;-46
2024/01/21 08:57:21;;;;;;;;;;;0.10;85.20;;;;;;5010808;28;86966;-47
2024/01/21 08:59:46;;;;;;;;;;;0.10;85.20;;;;;;5008875;28;86924;-47
2024/01/21 09:02:12;;;;;;;;;;;0.10;85.00;;;;;;5009299;28;86544;-47
2024/01/21 09:04:40;;;;;;;;;;;0.10;85.20;;;;;;5005844;28;87455;-48
2024/01/21 09:07:06;;;;;;;;;;;0.10;85.30;;;;;;5008746;28;87008;-47
2024/01/21 09:09:32;;;;;;;;;;;0.00;85.40;;;;;;5006626;28;87960;-49
2024/01/21 09:11:58;;;;;;;;;;;0.00;85.40;;;;;;5007923;28;87353;-47
2024/01/21 09:14:24;;;;;;;;;;;0.10;85.50;;;;;;5008063;28;87440;-48
2024/01/21 09:16:49;;;;;;;;;;;0.00;85.30;;;;;;5007705;28;88547;-47
2024/01/21 09:19:15;;;;;;;;;;;0.00;85.30;;;;;;5009926;28;87889;-49
2024/01/21 09:21:40;;;;;;;;;;;0.00;85.40;;;;;;5008254;28;87817;-49
2024/01/21 09:24:07;;;;;;;;;;;0.00;85.50;;;;;;5003510;28;87575;-46
2024/01/21 09:26:32;;;;;;;;;;;0.00;85.50;;;;;;5008391;28;86335;-47
2024/01/21 09:28:58;;;;;;;;;;;0.00;85.50;;;;;;5007485;28;86945;-47
2024/01/21 09:31:24;;;;;;;;;;;0.00;85.50;;;;;;5007773;28;88574;-47
2024/01/21 09:33:49;;;;;;;;;;;0.00;85.60;;;;;;5006420;28;87940;-48
2024/01/21 09:36:15;;;;;;;;;;;0.00;85.60;;;;;;5006653;28;90239;-48
2024/01/21 09:38:41;;;;;;;;;;;0.00;85.60;;;;;;5007031;28;87251;-48
2024/01/21 09:41:06;;;;;;;;;;;0.00;85.70;;;;;;5008229;28;86864;-47
2024/01/21 09:43:33;;;;;;;;;;;0.00;85.70;;;;;;5007766;28;87530;-48
2024/01/21 09:45:59;;;;;;;;;;;0.00;85.70;;;;;;5006808;28;87531;-47
2024/01/21 09:48:27;;;;;;;;;;;0.00;85.60;;;;;;5007013;28;87553;-47
2024/01/21 09:50:55;;;;;;;;;;;0.00;85.60;;;;;;5007833;28;87782;-48
2024/01/21 09:53:20;;;;;;;;;;;0.00;85.60;;;;;;5007625;28;86998;-48
2024/01/21 09:55:49;;;;;;;;;;;0.00;85.60;;;;;;5005481;28;86883;-47
2024/01/21 09:58:15;;;;;;;;;;;0.00;85.60;;;;;;5006167;28;89631;-48
2024/01/21 10:00:41;;;;;;;;;;;0.00;85.50;;;;;;5009852;28;87568;-49
2024/01/21 10:03:07;;;;;;;;;;;0.00;85.50;;;;;;5007129;28;87509;-46
2024/01/21 10:05:32;;;;;;;;;;;0.00;85.60;;;;;;5007573;28;86996;-49
2024/01/21 10:07:58;;;;;;;;;;;0.00;85.50;;;;;;5007806;28;86939;-48
2024/01/21 10:10:24;;;;;;;;;;;0.00;85.50;;;;;;5005530;28;87378;-47
2024/01/21 10:12:49;;;;;;;;;;;0.00;85.60;;;;;;5007632;28;87327;-48
2024/01/21 10:15:15;;;;;;;;;;;0.00;85.60;;;;;;5008236;28;86750;-47
2024/01/21 10:17:41;;;;;;;;;;;0.00;85.50;;;;;;5006794;28;88527;-47
2024/01/21 10:20:10;;;;;;;;;;;0.00;85.60;;;;;;5007728;28;87015;-48
2024/01/21 10:22:37;;;;;;;;;;;0.00;85.60;;;;;;5006177;28;88231;-48
2024/01/21 10:25:03;;;;;;;;;;;0.00;85.60;;;;;;5006578;28;87014;-49
2024/01/21 10:27:28;;;;;;;;;;;0.00;85.70;;;;;;5007297;28;86933;-49
2024/01/21 10:29:56;;;;;;;;;;;0.00;85.80;;;;;;5006424;28;88637;-48
2024/01/21 10:32:21;;;;;;;;;;;0.00;85.80;;;;;;5006839;28;86974;-48
2024/01/21 10:34:49;;;;;;;;;;;0.00;85.90;;;;;;5006864;28;87758;-48
2024/01/21 10:37:17;;;;;;;;;;;0.00;85.80;;;;;;5004099;28;87497;-48
2024/01/21 10:39:44;;;;;;;;;;;0.00;85.70;;;;;;5005521;28;86258;-49
2024/01/21 10:42:09;;;;;;;;;;;0.00;85.70;;;;;;5006255;28;87069;-47
2024/01/21 10:44:35;;;;;;;;;;;0.00;85.70;;;;;;5005985;28;87283;-47
2024/01/21 10:47:02;;;;;;;;;;;0.00;85.70;;;;;;5004580;28;87990;-48
2024/01/21 10:49:28;;;;;;;;;;;0.00;85.70;;;;;;5006627;28;88567;-48
2024/01/21 10:51:54;;;;;;;;;;;0.00;85.80;;;;;;5006503;28;86974;-50
2024/01/21 10:54:20;;;;;;;;;;;0.00;85.70;;;;;;5007179;28;86986;-47
2024/01/21 10:56:47;;;;;;;;;;;0.00;85.70;;;;;;5007484;28;88469;-46
2024/01/21 10:59:13;;;;;;;;;;;0.00;85.60;;;;;;5006720;28;86970;-48
2024/01/21 11:01:42;;;;;;;;;;;0.00;85.60;;;;;;5006233;28;86967;-49
2024/01/21 11:04:11;;;;;;;;;;;0.00;85.60;;;;;;5006378;28;87682;-47
2024/01/21 11:06:44;;;;;;;;;;;0.00;85.50;;;;;;5009543;28;86998;-48
2024/01/21 11:09:10;;;;;;;;;;;0.00;85.60;;;;;;5003885;28;88565;-47
2024/01/21 11:11:42;;;;;;;;;;;0.00;85.70;;;;;;5004878;28;87944;-47
2024/01/21 11:14:27;;;;;;;;;;;0.00;85.70;;;;;;5001655;28;88875;-47
2024/01/21 11:16:56;;;;;;;;;;;0.00;85.60;;;;;;5006086;28;87025;-48
2024/01/21 11:19:23;;;;;;;;;;;0.00;85.80;;;;;;5002459;28;87042;-47
2024/01/21 11:21:54;;;;;;;;;;;0.00;85.70;;;;;;5005984;28;87185;-49
2024/01/21 11:24:20;;;;;;;;;;;0.00;85.80;;;;;;5002588;28;87540;-48
2024/01/21 11:26:47;;;;;;;;;;;0.00;85.90;;;;;;5003379;28;87616;-51
2024/01/21 11:29:28;;;;;;;;;;;0.00;85.90;;;;;;5009197;28;86755;-48
2024/01/21 11:31:56;;;;;;;;;;;0.00;85.90;;;;;;5005387;28;87320;-48
2024/01/21 11:34:22;;;;;;;;;;;0.00;85.90;;;;;;5004489;28;88110;-48
2024/01/21 11:36:47;;;;;;;;;;;0.00;85.90;;;;;;5005305;28;89447;-47
2024/01/21 11:39:13;;;;;;;;;;;0.10;86.00;;;;;;5006287;28;87006;-47
2024/01/21 11:41:42;;;;;;;;;;;0.10;86.00;;;;;;5003190;28;87025;-48
2024/01/21 11:44:18;;;;;;;;;;;0.10;85.90;;;;;;5004247;28;87474;-51
2024/01/21 11:46:44;;;;;;;;;;;0.10;86.00;;;;;;5003647;28;86885;-48
2024/01/21 11:49:09;;;;;;;;;;;0.10;86.00;;;;;;5008075;28;86977;-47
2024/01/21 11:51:35;;;;;;;;;;;0.10;86.10;;;;;;5007943;28;87008;-48
2024/01/21 11:54:01;;;;;;;;;;;0.00;85.90;;;;;;5009946;28;86783;-49
2024/01/21 11:56:27;;;;;;;;;;;0.10;86.10;;;;;;5008477;28;87631;-49
2024/01/21 11:58:52;;;;;;;;;;;0.10;86.00;;;;;;5009467;28;87034;-47
2024/01/21 12:01:20;;;;;;;;;;;0.10;86.00;;;;;;5008744;28;87893;-47
2024/01/21 12:03:48;;;;;;;;;;;0.10;86.00;;;;;;5008738;28;88465;-47
2024/01/21 12:06:15;;;;;;;;;;;0.10;85.90;;;;;;5009400;28;86868;-47
2024/01/21 12:08:43;;;;;;;;;;;0.10;86.60;;;;;;5008476;28;86964;-48
2024/01/21 12:11:08;;;;;;;;;;;0.10;86.00;;;;;;5007939;28;87528;-46
2024/01/21 12:13:34;;;;;;;;;;;0.10;86.00;;;;;;5009261;28;86940;-48
2024/01/21 12:15:59;;;;;;;;;;;0.10;86.00;;;;;;5009236;28;87427;-48
2024/01/21 12:18:25;;;;;;;;;;;0.10;85.90;;;;;;5009346;28;86316;-48
2024/01/21 12:20:50;;;;;;;;;;;0.10;85.90;;;;;;5009178;28;86963;-48
2024/01/21 12:23:22;;;;;;;;;;;0.10;85.90;;;;;;5008990;28;87931;-47
2024/01/21 12:25:48;;;;;;;;;;;0.10;85.80;;;;;;5008708;28;87931;-48
2024/01/21 12:28:14;;;;;;;;;;;0.20;85.80;;;;;;5005561;28;87655;-48
2024/01/21 12:30:39;;;;;;;;;;;0.20;85.70;;;;;;5008722;28;88484;-47
2024/01/21 12:33:05;;;;;;;;;;;0.20;85.90;;;;;;5012391;28;86932;-49
2024/01/21 12:35:31;;;;;;;;;;;0.20;85.80;;;;;;5008193;28;87158;-49
2024/01/21 12:37:58;;;;;;;;;;;0.20;85.90;;;;;;5009257;28;86957;-47
2024/01/21 12:40:23;;;;;;;;;;;0.20;85.80;;;;;;5008528;28;87804;-49
2024/01/21 12:42:49;;;;;;;;;;;0.20;85.70;;;;;;5008050;28;86721;-51
2024/01/21 12:45:14;;;;;;;;;;;0.20;85.70;;;;;;5007724;28;87255;-50
2024/01/21 12:47:40;;;;;;;;;;;0.20;85.60;;;;;;5008633;28;86950;-47
2024/01/21 12:50:07;;;;;;;;;;;0.30;85.50;;;;;;5006765;28;89307;-47
2024/01/21 12:52:33;;;;;;;;;;;0.30;85.60;;;;;;5007978;28;86967;-47
2024/01/21 12:54:58;;;;;;;;;;;0.30;85.60;;;;;;5010691;28;88137;-48
2024/01/21 12:57:24;;;;;;;;;;;0.40;85.40;;;;;;5007701;28;87112;-47
2024/01/21 12:59:50;;;;;;;;;;;0.40;85.20;;;;;;5008803;28;87984;-47
2024/01/21 13:02:15;;;;;;;;;;;0.40;85.10;;;;;;5006982;28;87302;-47
2024/01/21 13:04:41;;;;;;;;;;;0.40;85.30;;;;;;5008086;28;87096;-49
2024/01/21 13:07:07;;;;;;;;;;;0.40;85.20;;;;;;5009213;28;86753;-49
2024/01/21 13:09:32;;;;;;;;;;;0.40;85.20;;;;;;5008074;28;87499;-47
2024/01/21 13:11:58;;;;;;;;;;;0.40;85.40;;;;;;5008002;28;87011;-48
2024/01/21 13:14:23;;;;;;;;;;;0.50;85.40;;;;;;5003982;28;87916;-48
2024/01/21 13:16:49;;;;;;;;;;;0.50;85.40;;;;;;5011278;28;87276;-47
2024/01/21 13:19:14;;;;;;;;;;;0.50;85.40;;;;;;5008301;28;88144;-49
2024/01/21 13:21:40;;;;;;;;;;;0.50;85.40;;;;;;5008107;28;87145;-49
2024/01/21 13:24:07;;;;;;;;;;;0.50;85.40;;;;;;5008473;28;88104;-47
2024/01/21 13:26:32;;;;;;;;;;;0.50;85.40;;;;;;5007698;28;87939;-46
2024/01/21 13:31:47;;;;;;;;;;;0.50;85.50;;;;;;5002293;28;86287;-47
2024/01/21 13:34:14;;;;;;;;;;;0.50;85.60;;;;;;5008022;28;87022;-48
2024/01/21 13:36:39;;;;;;;;;;;0.50;85.50;;;;;;5007329;28;88602;-47
2024/01/21 13:39:05;;;;;;;;;;;0.50;85.40;;;;;;5010333;28;88609;-48
2024/01/21 13:41:31;;;;;;;;;;;0.50;85.30;;;;;;5007320;28;87240;-47
2024/01/21 13:43:56;;;;;;;;;;;0.50;85.20;;;;;;5006604;28;86979;-49
2024/01/21 13:46:22;;;;;;;;;;;0.50;85.30;;;;;;5008028;28;87098;-51
2024/01/21 13:48:47;;;;;;;;;;;0.50;85.30;;;;;;5007324;28;87299;-49
2024/01/21 13:51:13;;;;;;;;;;;0.50;85.20;;;;;;5007899;28;87011;-47
2024/01/21 13:53:38;;;;;;;;;;;0.50;85.30;;;;;;5008751;28;86833;-49
2024/01/21 13:56:04;;;;;;;;;;;0.60;85.20;;;;;;5007471;28;86762;-48
2024/01/21 13:58:30;;;;;;;;;;;0.50;85.30;;;;;;5010130;28;87111;-48
2024/01/21 14:00:55;;;;;;;;;;;0.50;85.30;;;;;;5007408;28;88462;-47
2024/01/21 14:03:21;;;;;;;;;;;0.60;85.20;;;;;;5005695;28;87953;-50
2024/01/21 14:05:46;;;;;;;;;;;0.60;85.20;;;;;;5007997;28;87757;-46
2024/01/21 14:08:13;;;;;;;;;;;0.60;85.20;;;;;;5006843;28;88487;-49
2024/01/21 14:10:38;;;;;;;;;;;0.60;85.30;;;;;;5007970;28;86925;-48
2024/01/21 14:13:04;;;;;;;;;;;0.50;85.10;;;;;;5006311;28;87986;-49
2024/01/21 14:15:30;;;;;;;;;;;0.60;85.20;;;;;;5005310;28;88466;-49
2024/01/21 14:17:55;;;;;;;;;;;0.60;85.30;;;;;;5007175;28;86870;-49
2024/01/21 14:20:22;;;;;;;;;;;0.60;85.30;;;;;;5010595;28;86147;-48
2024/01/21 14:22:49;;;;;;;;;;;0.60;85.10;;;;;;5006919;28;87202;-50
2024/01/21 14:25:27;;;;;;;;;;;0.60;85.30;;;;;;5005992;28;87329;-49